Novomar — 5BCT2 — position and weather

sailwx.info

Track history (hours):
 
Tides and Currents Weather Stations Pressure Air Temp Water Temp Dewpoint Dewpoint Depression Visibility Wind Speed Wind Dir Waves Ship Positions

Novomar

Last reported at 2016-Sep-26 13:33 UTC. Time now 2016-Sep-26 15:31 UTC.
Position N 53°29' W 003°26'.

Length 89 m; draft 3.3 m.

Type: Ship. MMSI: 210974000.

Date/timePositionNaut miles runAvg speedWind from/ knotsBaromVisibWave heightAir tempDewpointWater temp
2016-Sep-26 13:33N 53°29' W 003°26'0 0.0
2016-Sep-26 11:33N 53°29' W 003°26'0 0.0
2016-Sep-26 08:30N 53°28' W 003°26'0 0.0
2016-Sep-26 02:33N 53°28' W 003°25'0 0.0
2016-Sep-26 01:33N 53°28' W 003°25'0 0.0
2016-Sep-26 00:33N 53°28' W 003°25'0 0.0
2016-Sep-25 21:33N 53°28' W 003°25'0 0.0
2016-Sep-25 17:30N 53°28' W 003°25'0 0.1
2016-Sep-25 16:33N 53°28' W 003°25'1 1.3
2016-Sep-25 15:33N 53°29' W 003°24'1 0.8
2016-Sep-25 14:33N 53°30' W 003°25'182 9.3
2016-Sep-24 19:04N 50°51' W 005°51'710.6
2016-Sep-24 18:26N 50°45' W 005°51'2010.4
2016-Sep-24 16:32N 50°25' W 005°52'41 6.9
2016-Sep-24 10:31N 49°54' W 005°09'67 9.6
2016-Sep-24 03:33N 50°06' W 003°26'1010.3
2016-Sep-24 02:34N 50°09' W 003°11'10 9.6
2016-Sep-24 01:34N 50°13' W 002°57'10 9.2
2016-Sep-24 00:28N 50°14' W 002°42'9311.7
2016-Sep-23 16:33N 50°30' W 000°18'1111.1
2016-Sep-23 15:33N 50°32' W 000°01'6410.7
2016-Sep-23 09:34N 51°04' E 001°27'3010.2
2016-Sep-23 06:34N 51°25' E 002°02'18 9.0
2016-Sep-23 04:33N 51°23' E 002°31'9 9.2
2016-Sep-23 03:33N 51°23' E 002°46'9 9.4
2016-Sep-23 02:33N 51°22' E 003°00'1110.8
2016-Sep-23 01:34N 51°24' E 003°17'1110.7
2016-Sep-23 00:34N 51°26' E 003°34'5 4.8
2016-Sep-22 23:33N 51°28' E 003°41'0 0.0
2016-Sep-22 20:33N 51°28' E 003°41'1 0.1
2016-Sep-22 12:33N 51°27' E 003°40'23 2.9
2016-Sep-22 04:33N 51°46' E 003°20'0 0.0
2016-Sep-22 03:33N 51°46' E 003°20'0 0.0
2016-Sep-22 00:33N 51°46' E 003°20'0 0.0
2016-Sep-21 23:30N 51°46' E 003°20'0 0.1
2016-Sep-21 22:24N 51°46' E 003°20'0 0.0
2016-Sep-21 16:33N 51°46' E 003°20'0 0.0
2016-Sep-21 09:27N 51°46' E 003°20'136 7.2
2016-Sep-20 14:33N 53°39' E 005°25'1010.3
2016-Sep-20 13:34N 53°42' E 005°42'29 9.6
2016-Sep-20 10:33N 53°50' E 006°29'18 9.0
2016-Sep-20 08:33N 53°55' E 006°58'2110.6
2016-Sep-20 06:33N 54°00' E 007°33'4310.6
2016-Sep-20 02:33N 53°52' E 008°44'16 5.3
2016-Sep-19 23:33N 53°55' E 009°11'44 6.2
2016-Sep-19 16:33N 54°22' E 010°09'12 6.0
2016-Sep-19 14:32N 54°31' E 010°22'9 9.3
2016-Sep-19 13:34N 54°34' E 010°37'10 9.7
2016-Sep-19 12:34N 54°35' E 010°54'1010.3
2016-Sep-19 11:33N 54°36' E 011°11'2110.3
2016-Sep-19 09:34N 54°28' E 011°44'18 8.8
2016-Sep-19 07:34N 54°33' E 012°13'10 9.9
2016-Sep-19 06:33N 54°40' E 012°25'59 9.8
2016-Sep-19 00:34N 55°03' E 013°59'47 9.4
2016-Sep-18 19:34N 55°35' E 014°60'356 9.9
2016-Sep-17 07:33N 59°36' E 023°07'2010.2
2016-Sep-17 05:34N 59°41' E 023°46'104 8.6
2016-Sep-16 17:31N 60°25' E 026°55'0 0.0
2016-Sep-16 15:31N 60°25' E 026°55'  
Track history (hours):
 
Tides and Currents Weather Stations Pressure Air Temp Water Temp Dewpoint Dewpoint Depression Visibility Wind Speed Wind Dir Waves Ship Positions

Novomar

Last reported at 2016-Sep-26 13:33 UTC. Time now 2016-Sep-26 15:31 UTC.
Position N 53°29' W 003°26'.

Length 89 m; draft 3.3 m.

Type: Ship. MMSI: 210974000.

Date/timePositionNaut miles runAvg speedWind from/ knotsBaromVisibWave heightAir tempDewpointWater temp
2016-Sep-26 13:33N 53°29' W 003°26'0 0.0
2016-Sep-26 11:33N 53°29' W 003°26'0 0.0
2016-Sep-26 08:30N 53°28' W 003°26'0 0.0
2016-Sep-26 02:33N 53°28' W 003°25'0 0.0
2016-Sep-26 01:33N 53°28' W 003°25'0 0.0
2016-Sep-26 00:33N 53°28' W 003°25'0 0.0
2016-Sep-25 21:33N 53°28' W 003°25'0 0.0
2016-Sep-25 17:30N 53°28' W 003°25'0 0.1
2016-Sep-25 16:33N 53°28' W 003°25'1 1.3
2016-Sep-25 15:33N 53°29' W 003°24'1 0.8
2016-Sep-25 14:33N 53°30' W 003°25'182 9.3
2016-Sep-24 19:04N 50°51' W 005°51'710.6
2016-Sep-24 18:26N 50°45' W 005°51'2010.4
2016-Sep-24 16:32N 50°25' W 005°52'41 6.9
2016-Sep-24 10:31N 49°54' W 005°09'67 9.6
2016-Sep-24 03:33N 50°06' W 003°26'1010.3
2016-Sep-24 02:34N 50°09' W 003°11'10 9.6
2016-Sep-24 01:34N 50°13' W 002°57'10 9.2
2016-Sep-24 00:28N 50°14' W 002°42'9311.7
2016-Sep-23 16:33N 50°30' W 000°18'1111.1
2016-Sep-23 15:33N 50°32' W 000°01'6410.7
2016-Sep-23 09:34N 51°04' E 001°27'3010.2
2016-Sep-23 06:34N 51°25' E 002°02'18 9.0
2016-Sep-23 04:33N 51°23' E 002°31'9 9.2
2016-Sep-23 03:33N 51°23' E 002°46'9 9.4
2016-Sep-23 02:33N 51°22' E 003°00'1110.8
2016-Sep-23 01:34N 51°24' E 003°17'1110.7
2016-Sep-23 00:34N 51°26' E 003°34'5 4.8
2016-Sep-22 23:33N 51°28' E 003°41'0 0.0
2016-Sep-22 20:33N 51°28' E 003°41'1 0.1
2016-Sep-22 12:33N 51°27' E 003°40'23 2.9
2016-Sep-22 04:33N 51°46' E 003°20'0 0.0
2016-Sep-22 03:33N 51°46' E 003°20'0 0.0
2016-Sep-22 00:33N 51°46' E 003°20'0 0.0
2016-Sep-21 23:30N 51°46' E 003°20'0 0.1
2016-Sep-21 22:24N 51°46' E 003°20'0 0.0
2016-Sep-21 16:33N 51°46' E 003°20'0 0.0
2016-Sep-21 09:27N 51°46' E 003°20'136 7.2
2016-Sep-20 14:33N 53°39' E 005°25'1010.3
2016-Sep-20 13:34N 53°42' E 005°42'29 9.6
2016-Sep-20 10:33N 53°50' E 006°29'18 9.0
2016-Sep-20 08:33N 53°55' E 006°58'2110.6
2016-Sep-20 06:33N 54°00' E 007°33'4310.6
2016-Sep-20 02:33N 53°52' E 008°44'16 5.3
2016-Sep-19 23:33N 53°55' E 009°11'44 6.2
2016-Sep-19 16:33N 54°22' E 010°09'12 6.0
2016-Sep-19 14:32N 54°31' E 010°22'9 9.3
2016-Sep-19 13:34N 54°34' E 010°37'10 9.7
2016-Sep-19 12:34N 54°35' E 010°54'1010.3
2016-Sep-19 11:33N 54°36' E 011°11'2110.3
2016-Sep-19 09:34N 54°28' E 011°44'18 8.8
2016-Sep-19 07:34N 54°33' E 012°13'10 9.9
2016-Sep-19 06:33N 54°40' E 012°25'59 9.8
2016-Sep-19 00:34N 55°03' E 013°59'47 9.4
2016-Sep-18 19:34N 55°35' E 014°60'356 9.9
2016-Sep-17 07:33N 59°36' E 023°07'2010.2
2016-Sep-17 05:34N 59°41' E 023°46'104 8.6
2016-Sep-16 17:31N 60°25' E 026°55'0 0.0
2016-Sep-16 15:31N 60°25' E 026°55'  

Dump ship's entire track history